Time;durP1;ratioP1;P1;durP2;ratioP2;P2;SDS_P1;SDS_P2;PMS_P1;PMS_P2;Temp;Humidity;BMP_temperature;BMP_pressure;BME280_temperature;BME280_humidity;BME280_pressure;Samples;Min_cycle;Max_cycle;Signal;HPM_P1;HPM_P2
2023/10/18 00:01:00;;;;;;;2.20;2.00;;;16.80;62.30;17.70;100511.00;;;;5070605;28;20212;-48
2023/10/18 00:03:29;;;;;;;2.00;1.90;;;16.80;62.30;17.70;100512.00;;;;5068575;28;20182;-49
2023/10/18 00:05:56;;;;;;;2.00;1.90;;;16.80;62.30;17.60;100514.00;;;;5074358;28;20285;-47
2023/10/18 00:08:22;;;;;;;2.33;2.00;;;16.80;62.30;17.60;100506.00;;;;5077500;28;20184;-48
2023/10/18 00:10:50;;;;;;;2.20;2.00;;;16.80;62.40;17.60;100503.00;;;;5058218;28;20849;-48
2023/10/18 00:13:16;;;;;;;2.53;2.10;;;16.80;62.40;17.60;100369.00;;;;5047496;28;20181;-48
2023/10/18 00:15:42;;;;;;;2.20;2.00;;;16.80;62.40;17.60;100499.00;;;;5048828;28;20196;-48
2023/10/18 00:18:11;;;;;;;2.30;2.10;;;16.80;62.50;17.60;100489.00;;;;5048692;28;20660;-48
2023/10/18 00:20:36;;;;;;;2.30;2.10;;;16.70;62.40;17.60;100491.00;;;;5048320;28;20637;-48
2023/10/18 00:23:03;;;;;;;2.30;2.10;;;16.70;62.40;17.60;100481.00;;;;5048783;28;20186;-48
2023/10/18 00:25:30;;;;;;;2.40;2.20;;;16.70;62.50;17.50;100492.00;;;;5048803;28;20802;-48
2023/10/18 00:27:58;;;;;;;2.40;2.20;;;16.70;62.50;17.50;100493.00;;;;5048928;28;20178;-48
2023/10/18 00:30:27;;;;;;;2.40;1.90;;;16.70;62.50;17.50;100494.00;;;;5068138;28;20214;-48
2023/10/18 00:32:52;;;;;;;2.27;2.07;;;16.70;62.50;17.50;100493.00;;;;5066673;28;20621;-48
2023/10/18 00:35:18;;;;;;;2.27;2.00;;;16.70;62.40;17.50;100492.00;;;;5068578;28;20261;-48
2023/10/18 00:37:45;;;;;;;2.40;2.20;;;16.70;62.40;17.50;100500.00;;;;5068260;28;20192;-49
2023/10/18 00:40:21;;;;;;;2.40;2.20;;;16.70;62.50;17.50;100489.00;;;;5068104;28;20195;-48
2023/10/18 00:42:48;;;;;;;2.30;2.10;;;16.60;62.40;17.40;100477.00;;;;5068137;28;20196;-47
2023/10/18 00:45:14;;;;;;;2.10;2.00;;;16.60;62.40;17.40;100479.00;;;;5055925;28;20195;-48
2023/10/18 00:47:40;;;;;;;2.20;2.00;;;16.60;62.50;17.40;100483.00;;;;5053028;28;20184;-48
2023/10/18 00:50:06;;;;;;;2.40;2.20;;;16.60;62.50;17.40;100472.00;;;;5060109;28;20215;-48
2023/10/18 00:52:32;;;;;;;2.83;2.00;;;16.60;62.50;17.40;100455.00;;;;5066939;28;20176;-48
2023/10/18 00:54:58;;;;;;;1.90;1.80;;;16.60;62.50;17.40;100477.00;;;;5067033;28;20170;-48
2023/10/18 00:57:34;;;;;;;2.17;2.00;;;16.50;62.40;17.40;100478.00;;;;5068246;28;20630;-48
2023/10/18 01:00:06;;;;;;;2.00;1.90;;;16.50;62.50;17.40;100465.00;;;;5067839;28;20675;-48
2023/10/18 01:02:36;;;;;;;2.30;2.10;;;16.50;62.60;17.40;100462.00;;;;5067997;28;20226;-48
2023/10/18 01:05:09;;;;;;;2.70;2.00;;;16.60;62.60;17.40;100469.00;;;;5058120;28;20184;-48
2023/10/18 01:07:35;;;;;;;2.10;1.90;;;16.60;62.60;17.40;100459.00;;;;5067945;28;20182;-48
2023/10/18 01:10:07;;;;;;;2.70;2.10;;;16.50;62.50;17.40;100461.00;;;;5067368;28;20200;-48
2023/10/18 01:12:34;;;;;;;2.17;2.00;;;16.50;62.50;17.30;100469.00;;;;5067919;28;20191;-49
2023/10/18 01:15:01;;;;;;;2.10;1.90;;;16.50;62.60;17.30;100453.00;;;;5067763;28;20679;-49
2023/10/18 01:17:27;;;;;;;2.40;2.20;;;16.50;62.60;17.30;100463.00;;;;5067947;28;20189;-48
2023/10/18 01:19:53;;;;;;;2.20;2.00;;;16.50;62.50;17.30;100464.00;;;;5067725;28;20181;-48
2023/10/18 01:22:19;;;;;;;2.03;1.83;;;16.50;62.50;17.30;100388.00;;;;5067650;28;20244;-48
2023/10/18 01:24:45;;;;;;;2.30;2.10;;;16.50;62.60;17.30;100472.00;;;;5067529;28;20186;-49
2023/10/18 01:27:12;;;;;;;2.30;2.10;;;16.50;62.50;17.30;100453.00;;;;5063550;28;20185;-49
2023/10/18 01:29:38;;;;;;;2.20;2.00;;;16.50;62.60;17.30;100460.00;;;;5063921;28;20288;-49
2023/10/18 01:32:04;;;;;;;2.23;2.03;;;16.50;62.60;17.30;100438.00;;;;5067727;28;20197;-48
2023/10/18 01:34:31;;;;;;;2.13;1.93;;;16.50;62.60;17.20;100447.00;;;;5066377;28;20219;-49
2023/10/18 01:36:59;;;;;;;2.47;2.00;;;16.40;62.50;17.20;100438.00;;;;5067423;28;20313;-48
2023/10/18 01:39:31;;;;;;;2.20;1.90;;;16.40;62.50;17.20;100429.00;;;;5067733;28;20187;-49
2023/10/18 01:42:00;;;;;;;2.00;1.90;;;16.40;62.70;17.20;100425.00;;;;5067833;28;20291;-48
2023/10/18 01:44:30;;;;;;;3.03;2.13;;;16.40;62.70;17.20;100426.00;;;;5059281;28;20432;-48
2023/10/18 01:47:00;;;;;;;2.03;1.93;;;16.30;62.50;17.20;100425.00;;;;5059550;28;20817;-49
2023/10/18 01:49:26;;;;;;;2.00;1.80;;;16.30;62.40;17.10;100417.00;;;;5052264;28;20202;-48
2023/10/18 01:51:54;;;;;;;2.20;2.10;;;16.40;62.50;17.10;100427.00;;;;5052798;28;20207;-49
2023/10/18 01:54:24;;;;;;;2.10;1.93;;;16.40;62.50;17.10;100424.00;;;;5052360;28;20186;-48
2023/10/18 01:56:54;;;;;;;2.30;2.10;;;16.30;62.50;17.10;100422.00;;;;5052730;28;20187;-47
2023/10/18 01:59:25;;;;;;;2.20;2.00;;;16.40;62.60;17.10;100415.00;;;;5064219;28;20188;-48
2023/10/18 02:01:53;;;;;;;1.93;1.83;;;16.30;62.50;17.10;100412.00;;;;5051756;28;20349;-49
2023/10/18 02:04:26;;;;;;;2.10;2.00;;;16.30;62.40;17.10;100402.00;;;;5051647;28;20247;-48
2023/10/18 02:07:02;;;;;;;2.50;1.93;;;16.30;62.50;17.10;100403.00;;;;5051939;28;20204;-48
2023/10/18 02:09:30;;;;;;;2.27;2.10;;;16.30;62.50;17.10;100394.00;;;;5051606;28;20636;-49
2023/10/18 02:11:56;;;;;;;1.97;1.87;;;16.30;62.50;17.10;100399.00;;;;5070106;28;20206;-48
2023/10/18 02:14:22;;;;;;;2.20;2.00;;;16.30;62.50;17.00;100389.00;;;;5071029;28;20374;-49
2023/10/18 02:16:48;;;;;;;1.90;1.80;;;16.20;62.40;17.00;100389.00;;;;5071012;28;20179;-48
2023/10/18 02:19:16;;;;;;;2.00;1.90;;;16.30;62.50;17.00;100389.00;;;;5070654;28;20192;-48
2023/10/18 02:21:42;;;;;;;2.40;2.20;;;16.30;62.50;17.00;100391.00;;;;5070747;28;20219;-54
2023/10/18 02:24:11;;;;;;;2.37;2.17;;;16.20;62.40;17.00;100387.00;;;;5070947;28;20185;-48
2023/10/18 02:26:44;;;;;;;1.90;1.80;;;16.20;62.40;17.00;100382.00;;;;5070762;28;20185;-48
2023/10/18 02:29:12;;;;;;;2.30;2.10;;;16.20;62.40;17.00;100374.00;;;;5061019;28;20213;-49
2023/10/18 02:31:40;;;;;;;2.90;2.10;;;16.20;62.40;17.00;100385.00;;;;5070625;28;20194;-48
2023/10/18 02:34:06;;;;;;;2.07;1.97;;;16.20;62.50;17.00;100371.00;;;;5069521;28;20185;-47
2023/10/18 02:36:32;;;;;;;2.00;1.90;;;16.20;62.50;16.90;100365.00;;;;5056956;28;20180;-48
2023/10/18 02:38:59;;;;;;;2.10;1.90;;;16.20;62.40;17.00;100361.00;;;;5054492;28;20282;-47
2023/10/18 02:41:28;;;;;;;2.53;2.20;;;16.20;62.40;16.90;100361.00;;;;5055904;28;20201;-47
2023/10/18 02:43:54;;;;;;;2.30;2.10;;;16.10;62.50;16.90;100360.00;;;;5070797;28;20222;-47
2023/10/18 02:46:23;;;;;;;2.00;1.90;;;16.20;62.40;16.90;100350.00;;;;5070675;28;20286;-48
2023/10/18 02:48:51;;;;;;;2.13;2.00;;;16.20;62.40;16.90;100352.00;;;;5067680;28;20633;-48
2023/10/18 02:51:22;;;;;;;2.13;1.97;;;16.10;62.30;16.90;100346.00;;;;5050301;28;20218;-48
2023/10/18 02:53:49;;;;;;;2.13;1.90;;;16.10;62.30;16.90;100351.00;;;;5050561;28;20236;-48
2023/10/18 02:56:20;;;;;;;2.30;2.10;;;16.10;62.20;16.90;100342.00;;;;5050252;28;20186;-47
2023/10/18 02:58:49;;;;;;;2.20;2.00;;;16.10;62.10;16.90;100346.00;;;;5050106;28;20185;-48
2023/10/18 03:01:18;;;;;;;2.20;2.07;;;16.10;62.20;16.90;100341.00;;;;5053739;28;20256;-47
2023/10/18 03:03:46;;;;;;;2.10;1.90;;;16.10;62.20;16.90;100326.00;;;;5059573;28;20194;-48
2023/10/18 03:06:16;;;;;;;1.93;1.83;;;16.00;62.10;16.80;100335.00;;;;5071473;28;20571;-47
2023/10/18 03:08:42;;;;;;;2.10;1.90;;;16.00;62.10;16.80;100321.00;;;;5071223;28;20204;-47
2023/10/18 03:11:11;;;;;;;2.27;2.07;;;16.10;62.30;16.80;100332.00;;;;5069917;28;20224;-48
2023/10/18 03:13:37;;;;;;;1.90;1.80;;;16.00;62.20;16.80;100332.00;;;;5071235;28;20173;-48
2023/10/18 03:16:04;;;;;;;2.60;2.10;;;16.00;62.10;16.80;100336.00;;;;5071017;28;20248;-48
2023/10/18 03:18:31;;;;;;;2.10;1.90;;;16.00;62.00;16.80;100339.00;;;;5071081;28;20181;-48
2023/10/18 03:20:57;;;;;;;3.07;2.03;;;16.00;62.10;16.80;100320.00;;;;5069867;28;20640;-47
2023/10/18 03:23:26;;;;;;;2.13;1.97;;;16.00;62.00;16.80;100311.00;;;;5063102;28;20272;-49
2023/10/18 03:26:08;;;;;;;2.20;2.00;;;16.00;62.00;16.80;100330.00;;;;5059198;28;20189;-48
2023/10/18 03:28:34;;;;;;;3.60;2.20;;;16.00;62.00;16.80;100316.00;;;;5064095;28;20675;-48
2023/10/18 03:31:20;;;;;;;3.27;2.13;;;16.00;62.30;16.80;100322.00;;;;5070284;28;20209;-48
2023/10/18 03:33:48;;;;;;;5.93;2.20;;;16.00;62.40;16.70;100305.00;;;;5070923;28;20192;-48
2023/10/18 03:36:20;;;;;;;6.43;2.17;;;16.00;62.40;16.70;100295.00;;;;5079633;28;20208;-48
2023/10/18 03:38:53;;;;;;;2.93;2.20;;;16.00;62.70;16.70;100307.00;;;;5077737;28;20195;-49
2023/10/18 03:41:22;;;;;;;5.77;2.27;;;16.00;62.40;16.70;100297.00;;;;5071543;28;20286;-48
2023/10/18 03:43:49;;;;;;;4.93;2.20;;;16.00;62.40;16.70;100300.00;;;;5072200;28;20183;-49
2023/10/18 03:46:29;;;;;;;3.20;2.07;;;16.00;62.50;16.70;100300.00;;;;5071970;28;20194;-48
2023/10/18 03:48:55;;;;;;;4.80;2.30;;;15.90;62.50;16.70;100286.00;;;;5076146;28;20218;-49
2023/10/18 03:51:24;;;;;;;4.93;2.20;;;15.90;62.50;16.70;100288.00;;;;5081984;28;20878;-48
2023/10/18 03:53:53;;;;;;;3.63;2.30;;;15.90;62.40;16.70;100295.00;;;;5070533;28;20185;-48
2023/10/18 03:56:22;;;;;;;5.00;2.10;;;15.90;62.40;16.70;100277.00;;;;5070434;28;20269;-47
2023/10/18 03:59:00;;;;;;;4.00;2.40;;;15.90;62.30;16.60;100285.00;;;;5067435;28;20256;-48
2023/10/18 04:01:41;;;;;;;2.80;2.10;;;15.80;62.30;16.60;100278.00;;;;5056601;28;20680;-48
2023/10/18 04:04:07;;;;;;;4.17;2.30;;;15.80;63.00;16.60;100278.00;;;;5061897;28;20173;-49
2023/10/18 04:06:35;;;;;;;4.13;2.27;;;15.80;62.20;16.60;100275.00;;;;5069182;28;20574;-48
2023/10/18 04:09:13;;;;;;;2.53;2.20;;;15.80;62.20;16.60;100279.00;;;;5069189;28;20272;-49
2023/10/18 04:11:39;;;;;;;2.57;2.10;;;15.80;63.10;16.60;100278.00;;;;5069865;28;20216;-48
2023/10/18 04:14:06;;;;;;;2.97;2.10;;;15.80;62.30;16.60;100274.00;;;;5061329;28;20189;-48
2023/10/18 04:16:32;;;;;;;2.63;2.37;;;15.80;62.60;16.50;100272.00;;;;5054873;28;20183;-48
2023/10/18 04:18:58;;;;;;;2.63;2.13;;;15.70;62.20;16.50;100267.00;;;;5069316;28;20231;-48
2023/10/18 04:21:27;;;;;;;3.23;2.20;;;15.80;62.20;16.50;100264.00;;;;5069330;28;20209;-48
2023/10/18 04:23:56;;;;;;;3.57;2.10;;;15.70;62.20;16.50;100250.00;;;;5068799;28;20211;-48
2023/10/18 04:26:24;;;;;;;6.50;2.10;;;15.70;62.20;16.50;100256.00;;;;5069464;28;20173;-47
2023/10/18 04:28:57;;;;;;;4.13;2.00;;;15.70;62.30;16.50;100252.00;;;;5062190;28;20220;-47
2023/10/18 04:31:23;;;;;;;3.37;2.10;;;15.70;62.30;16.50;100245.00;;;;5062168;28;20290;-48
2023/10/18 04:33:50;;;;;;;6.60;2.40;;;15.70;62.40;16.50;100237.00;;;;5069268;28;20844;-47
2023/10/18 04:36:20;;;;;;;6.70;2.57;;;15.70;62.40;16.50;100232.00;;;;5069289;28;20683;-48
2023/10/18 04:38:46;;;;;;;10.63;3.10;;;15.70;62.50;16.50;100226.00;;;;5069165;28;20177;-49
2023/10/18 04:46:29;;;;;;;13.97;3.50;;;15.70;62.50;16.50;100214.00;;;;5068426;28;20198;-47
2023/10/18 04:54:11;;;;;;;11.30;3.20;;;15.60;62.50;16.40;100195.00;;;;5052604;28;20670;-48
2023/10/18 04:56:46;;;;;;;9.57;3.13;;;15.60;62.50;16.40;100182.00;;;;5069123;28;20186;-48
2023/10/18 05:04:33;;;;;;;5.83;2.77;;;15.60;62.50;16.40;100165.00;;;;5067547;28;20876;-48
2023/10/18 05:07:19;;;;;;;8.73;2.83;;;15.60;63.30;16.30;100158.00;;;;5068693;28;20181;-49
2023/10/18 05:09:45;;;;;;;6.80;2.93;;;15.60;62.50;16.30;100164.00;;;;5067939;28;20201;-49
2023/10/18 05:17:17;;;;;;;4.03;2.47;;;15.50;62.20;16.30;100163.00;;;;5068392;28;20220;-48
2023/10/18 05:19:44;;;;;;;3.50;2.33;;;15.50;62.10;16.30;100165.00;;;;5067177;28;20274;-49
2023/10/18 05:22:16;;;;;;;4.30;2.67;;;15.50;62.30;16.30;100174.00;;;;5068025;28;20211;-56
2023/10/18 05:24:46;;;;;;;6.07;2.37;;;15.50;62.10;16.20;100174.00;;;;5068591;28;20185;-48
2023/10/18 05:27:24;;;;;;;4.47;2.40;;;15.50;62.10;16.20;100167.00;;;;5077669;28;20657;-49
2023/10/18 05:29:59;;;;;;;6.23;2.90;;;15.40;62.10;16.20;100162.00;;;;5074153;28;20212;-48
2023/10/18 05:35:22;;;;;;;3.10;2.30;;;15.40;62.00;16.20;100171.00;;;;5067379;28;20673;-48
2023/10/18 05:37:57;;;;;;;4.97;2.40;;;15.40;62.00;16.20;100183.00;;;;5068736;28;20265;-49
2023/10/18 05:43:07;;;;;;;5.90;2.67;;;15.40;62.00;16.20;100164.00;;;;5072103;28;20239;-47
2023/10/18 05:45:33;;;;;;;4.30;2.47;;;15.40;62.00;16.20;100169.00;;;;5068128;28;20687;-48
2023/10/18 05:48:12;;;;;;;5.43;2.50;;;15.50;62.90;16.20;100172.00;;;;5068249;28;20177;-48
2023/10/18 05:50:38;;;;;;;3.87;2.70;;;15.50;62.00;16.20;100177.00;;;;5067796;28;20591;-48
2023/10/18 05:53:10;;;;;;;4.47;2.77;;;15.40;62.10;16.20;100175.00;;;;5068089;28;20173;-48
2023/10/18 05:55:38;;;;;;;3.23;2.40;;;15.40;62.30;16.20;100168.00;;;;5068276;28;20831;-48
2023/10/18 05:58:07;;;;;;;3.83;2.50;;;15.50;62.50;16.20;100160.00;;;;5067986;28;20656;-48
2023/10/18 06:00:36;;;;;;;2.93;2.30;;;15.50;62.70;16.20;100164.00;;;;5067916;28;20212;-48
2023/10/18 06:03:01;;;;;;;4.23;2.63;;;15.50;62.80;16.20;100162.00;;;;5067198;28;20610;-48
2023/10/18 06:05:33;;;;;;;6.40;2.33;;;15.60;62.70;16.30;100157.00;;;;5068711;28;20185;-47
2023/10/18 06:08:01;;;;;;;5.53;2.30;;;15.70;62.70;16.30;100154.00;;;;5068378;28;20272;-48
2023/10/18 06:10:26;;;;;;;4.70;2.50;;;15.80;62.60;16.40;100155.00;;;;5068074;28;20328;-48
2023/10/18 06:13:05;;;;;;;3.67;2.40;;;16.00;62.50;16.50;100161.00;;;;5068158;28;20265;-48
2023/10/18 06:15:38;;;;;;;2.40;2.20;;;16.10;62.60;16.50;100155.00;;;;5068214;28;20178;-47
2023/10/18 06:18:09;;;;;;;3.90;2.23;;;16.20;62.40;16.60;100156.00;;;;5068278;28;20205;-47
2023/10/18 06:20:41;;;;;;;3.40;2.50;;;16.40;62.20;16.70;100160.00;;;;5067622;28;20217;-48
2023/10/18 06:23:09;;;;;;;3.93;2.20;;;16.50;62.10;16.80;100158.00;;;;5067751;28;20237;-48
2023/10/18 06:25:36;;;;;;;3.57;2.30;;;16.60;62.10;16.90;100158.00;;;;5067921;28;20687;-47
2023/10/18 06:28:07;;;;;;;4.80;2.40;;;16.70;62.00;17.00;100153.00;;;;5067893;28;20247;-47
2023/10/18 06:30:39;;;;;;;3.53;2.20;;;16.70;62.00;17.00;100144.00;;;;5067716;28;20227;-48
2023/10/18 06:33:07;;;;;;;3.17;2.23;;;16.80;62.10;17.10;100146.00;;;;5071571;28;20182;-48
2023/10/18 06:35:51;;;;;;;3.50;2.20;;;16.80;62.30;17.10;100136.00;;;;5065176;28;20231;-48
2023/10/18 06:38:23;;;;;;;2.93;2.13;;;16.90;62.30;17.20;100129.00;;;;5054765;28;20659;-48
2023/10/18 06:43:25;;;;;;;2.83;2.00;;;17.00;62.30;17.30;100130.00;;;;5057833;28;20188;-48
2023/10/18 06:45:54;;;;;;;2.30;2.00;;;17.00;62.30;17.40;100138.00;;;;5071097;28;20204;-48
2023/10/18 06:48:22;;;;;;;3.53;2.10;;;17.10;62.50;17.40;100127.00;;;;5067809;28;20182;-48
2023/10/18 06:50:48;;;;;;;2.47;2.20;;;17.10;62.60;17.40;100126.00;;;;5059692;28;20246;-49
2023/10/18 06:53:15;;;;;;;3.10;2.20;;;17.00;62.50;17.40;100121.00;;;;5066022;28;20177;-49
2023/10/18 06:55:43;;;;;;;4.33;2.20;;;17.00;62.60;17.50;100115.00;;;;5062985;28;20176;-49
2023/10/18 07:00:54;;;;;;;4.20;2.17;;;17.10;63.00;17.50;100115.00;;;;5070438;28;20208;-48
2023/10/18 07:03:31;;;;;;;4.37;2.33;;;17.10;63.00;17.50;100120.00;;;;5070933;28;20181;-48
2023/10/18 07:05:57;;;;;;;6.10;2.30;;;17.10;63.00;17.60;100125.00;;;;5070966;28;20183;-48
2023/10/18 07:08:39;;;;;;;3.93;2.00;;;17.20;63.20;17.60;100117.00;;;;5069586;28;20566;-49
2023/10/18 07:11:08;;;;;;;3.40;2.63;;;17.20;63.40;17.60;100114.00;;;;5070629;28;20240;-49
2023/10/18 07:13:34;;;;;;;3.43;2.07;;;17.20;63.70;17.60;100101.00;;;;5062175;28;20180;-48
2023/10/18 07:16:12;;;;;;;6.77;2.20;;;17.20;63.70;17.60;100094.00;;;;5060891;28;20661;-49
2023/10/18 07:18:38;;;;;;;5.97;2.40;;;17.20;63.70;17.70;100091.00;;;;5076410;28;20247;-49
2023/10/18 07:21:09;;;;;;;4.30;2.10;;;17.30;63.80;17.70;100083.00;;;;5084936;28;20200;-49
2023/10/18 07:23:39;;;;;;;3.80;2.30;;;17.30;63.80;17.70;100088.00;;;;5072205;28;20296;-48
2023/10/18 07:26:13;;;;;;;4.17;2.10;;;17.30;63.80;17.70;100081.00;;;;5071074;28;20662;-49
2023/10/18 07:28:40;;;;;;;3.10;2.30;;;17.30;63.80;17.70;100085.00;;;;5070979;28;20188;-49
2023/10/18 07:31:10;;;;;;;2.67;2.00;;;17.30;63.90;17.70;100065.00;;;;5071261;28;20212;-48
2023/10/18 07:33:42;;;;;;;7.13;2.30;;;17.30;64.10;17.70;100062.00;;;;5079986;28;20174;-48
2023/10/18 07:36:12;;;;;;;2.27;1.97;;;17.30;64.30;17.70;100078.00;;;;5070969;28;20182;-48
2023/10/18 07:38:40;;;;;;;3.70;2.40;;;17.20;64.30;17.70;100067.00;;;;5069349;28;20353;-47
2023/10/18 07:41:09;;;;;;;3.87;2.30;;;17.20;64.50;17.70;100069.00;;;;5067524;28;20224;-48
2023/10/18 07:43:35;;;;;;;3.00;2.20;;;17.30;64.60;17.80;100060.00;;;;5060632;28;20343;-48
2023/10/18 07:46:09;;;;;;;4.23;2.10;;;17.30;64.90;17.80;100058.00;;;;5051844;28;20667;-48
2023/10/18 07:48:38;;;;;;;4.73;2.10;;;17.30;65.00;17.80;100053.00;;;;5054495;28;20185;-50
2023/10/18 07:51:23;;;;;;;3.07;2.27;;;17.30;65.20;17.80;100036.00;;;;5060416;28;20738;-48
2023/10/18 07:53:53;;;;;;;4.63;2.27;;;17.30;65.50;17.70;100049.00;;;;5058976;28;20291;-50
2023/10/18 07:56:26;;;;;;;3.47;2.13;;;17.30;65.80;17.80;100025.00;;;;5065293;28;20188;-49
2023/10/18 07:59:07;;;;;;;3.00;1.97;;;17.30;65.90;17.80;100023.00;;;;5068349;28;20319;-48
2023/10/18 08:01:51;;;;;;;3.63;2.00;;;17.30;66.00;17.80;100036.00;;;;5067398;28;20209;-48
2023/10/18 08:04:19;;;;;;;2.80;2.17;;;17.30;67.10;17.80;100041.00;;;;5069483;28;20909;-48
2023/10/18 08:06:45;;;;;;;4.23;2.20;;;17.30;66.60;17.80;100030.00;;;;5069763;28;20184;-48
2023/10/18 08:09:12;;;;;;;4.70;2.20;;;17.20;66.40;17.80;100025.00;;;;5069205;28;20192;-48
2023/10/18 08:11:38;;;;;;;3.33;2.23;;;17.30;66.60;17.80;100023.00;;;;5069292;28;20212;-49
2023/10/18 08:14:16;;;;;;;2.63;2.10;;;17.30;66.50;17.80;100019.00;;;;5069426;28;20172;-49
2023/10/18 08:16:43;;;;;;;2.20;2.00;;;17.20;66.40;17.80;100027.00;;;;5069311;28;20196;-49
2023/10/18 08:19:12;;;;;;;2.43;2.20;;;17.20;66.40;17.80;100017.00;;;;5069692;28;20283;-49
2023/10/18 08:21:38;;;;;;;3.40;2.13;;;17.20;66.40;17.80;100029.00;;;;5069233;28;20205;-49
2023/10/18 08:24:08;;;;;;;3.70;2.00;;;17.20;67.20;17.80;100009.00;;;;5069501;28;20188;-48
2023/10/18 08:26:51;;;;;;;2.93;2.13;;;17.20;66.40;17.80;100024.00;;;;5068183;28;20192;-47
2023/10/18 08:29:17;;;;;;;4.60;2.13;;;17.20;66.40;17.80;100018.00;;;;5068768;28;20204;-49
2023/10/18 08:31:55;;;;;;;2.30;2.00;;;17.20;66.30;17.70;100015.00;;;;5068968;28;20197;-48
2023/10/18 08:34:23;;;;;;;2.20;2.00;;;17.10;66.20;17.70;100013.00;;;;5069398;28;20207;-48
2023/10/18 08:37:01;;;;;;;4.60;2.07;;;17.10;66.20;17.70;100010.00;;;;5065008;28;20189;-48
2023/10/18 08:39:27;;;;;;;3.47;2.17;;;17.10;66.30;17.70;100007.00;;;;5062232;28;20176;-49
2023/10/18 08:42:13;;;;;;;2.33;2.03;;;17.10;66.30;17.70;100003.00;;;;5068419;28;20676;-48
2023/10/18 08:44:39;;;;;;;2.10;1.90;;;17.10;66.30;17.70;100005.00;;;;5068679;28;20168;-48
2023/10/18 08:49:50;;;;;;;2.53;2.10;;;17.00;66.20;17.70;99995.00;;;;5068730;28;20212;-51
2023/10/18 08:52:20;;;;;;;2.53;2.00;;;17.10;66.30;17.70;100000.00;;;;5060578;28;20195;-49
2023/10/18 08:54:46;;;;;;;2.47;2.10;;;17.00;67.00;17.70;99995.00;;;;5066928;28;20173;-52
2023/10/18 08:57:12;;;;;;;2.93;2.10;;;17.00;66.20;17.70;99990.00;;;;5068775;28;20662;-51
2023/10/18 08:59:48;;;;;;;2.30;2.10;;;17.00;66.30;17.70;99987.00;;;;5066628;28;20233;-50
2023/10/18 09:02:18;;;;;;;5.57;2.07;;;17.00;66.40;17.70;99981.00;;;;5068734;28;20212;-50
2023/10/18 09:04:54;;;;;;;4.40;2.50;;;17.00;66.60;17.70;99982.00;;;;5068701;28;20603;-50
2023/10/18 09:07:23;;;;;;;2.50;1.90;;;17.00;66.70;17.60;99985.00;;;;5066251;28;20184;-50
2023/10/18 09:09:57;;;;;;;4.10;2.10;;;17.00;66.70;17.60;99988.00;;;;5055188;28;20190;-51
2023/10/18 09:17:54;;;;;;;2.00;1.90;;;17.00;66.70;17.60;99974.00;;;;5068557;28;20181;-50
2023/10/18 09:20:27;;;;;;;2.30;2.10;;;17.00;66.70;17.60;99977.00;;;;5067805;28;20316;-50
2023/10/18 09:22:53;;;;;;;2.30;2.10;;;16.90;66.70;17.60;99978.00;;;;5055540;28;20185;-50
2023/10/18 09:25:23;;;;;;;2.33;2.03;;;17.00;66.90;17.60;99976.00;;;;5060439;28;20272;-50
2023/10/18 09:27:52;;;;;;;2.87;1.87;;;16.90;66.80;17.60;99977.00;;;;5071065;28;20177;-50
2023/10/18 09:30:18;;;;;;;2.47;1.97;;;16.90;66.80;17.60;99978.00;;;;5066700;28;20675;-50
2023/10/18 09:32:46;;;;;;;3.40;2.00;;;16.90;66.60;17.60;99974.00;;;;5067021;28;20176;-51
2023/10/18 09:35:11;;;;;;;5.00;2.20;;;16.90;66.40;17.60;99970.00;;;;5056395;28;20960;-50
2023/10/18 09:37:38;;;;;;;2.47;2.17;;;16.90;66.50;17.60;99973.00;;;;5047824;28;20182;-50
2023/10/18 09:40:05;;;;;;;2.43;2.07;;;16.90;66.50;17.60;99969.00;;;;5053677;28;20213;-51
2023/10/18 09:42:31;;;;;;;4.60;2.10;;;16.90;66.60;17.60;99966.00;;;;5068154;28;20195;-50
2023/10/18 09:44:57;;;;;;;3.20;2.13;;;16.90;66.60;17.60;99970.00;;;;5066545;28;20208;-51
2023/10/18 09:47:26;;;;;;;6.03;2.30;;;16.90;66.70;17.60;99965.00;;;;5062191;28;20181;-51
2023/10/18 09:49:55;;;;;;;4.60;2.20;;;16.90;66.60;17.60;99959.00;;;;5057508;28;20207;-51
2023/10/18 09:52:23;;;;;;;5.43;2.30;;;16.90;66.50;17.60;99949.00;;;;5065715;28;20199;-52
2023/10/18 09:54:49;;;;;;;2.20;2.00;;;16.90;66.60;17.60;99954.00;;;;5063734;28;20254;-50
2023/10/18 09:57:23;;;;;;;4.97;2.30;;;16.90;66.50;17.60;99961.00;;;;5038937;28;20188;-51
2023/10/18 09:59:58;;;;;;;4.83;2.10;;;16.90;66.50;17.60;99947.00;;;;5062467;28;20187;-51
2023/10/18 10:02:24;;;;;;;3.80;2.00;;;16.90;66.50;17.60;99942.00;;;;5057549;28;20671;-51
2023/10/18 10:04:54;;;;;;;2.77;1.90;;;16.90;66.50;17.60;99943.00;;;;5043121;28;20197;-51
2023/10/18 10:07:41;;;;;;;5.40;2.10;;;16.90;66.50;17.60;99938.00;;;;5059696;28;20208;-51
2023/10/18 10:10:08;;;;;;;4.30;2.00;;;16.90;66.50;17.60;99930.00;;;;5057103;28;20570;-51
2023/10/18 10:12:34;;;;;;;4.20;2.07;;;16.90;66.50;17.60;99935.00;;;;5061610;28;20700;-50
2023/10/18 10:15:01;;;;;;;3.00;2.07;;;16.90;66.50;17.60;99929.00;;;;5070715;28;20202;-51
2023/10/18 10:17:30;;;;;;;3.00;2.20;;;16.90;66.50;17.60;99923.00;;;;5069985;28;20188;-51
2023/10/18 10:20:02;;;;;;;2.00;1.90;;;16.90;66.40;17.60;99917.00;;;;5064481;28;20184;-51
2023/10/18 10:22:28;;;;;;;5.30;2.27;;;16.90;66.40;17.60;99914.00;;;;5069360;28;20213;-51
2023/10/18 10:25:04;;;;;;;2.73;1.97;;;16.90;66.40;17.60;99895.00;;;;5066319;28;20186;-51
2023/10/18 10:30:03;;;;;;;3.23;2.00;;;16.90;67.10;17.60;99895.00;;;;5054690;28;20254;-51
2023/10/18 10:32:30;;;;;;;4.10;1.93;;;16.90;66.20;17.60;99875.00;;;;5066463;28;20239;-51
2023/10/18 10:35:15;;;;;;;2.80;2.20;;;16.90;66.20;17.60;99872.00;;;;5068197;28;20177;-52
2023/10/18 10:38:18;;;;;;;3.23;2.10;;;17.00;66.40;17.60;99864.00;;;;5058089;28;20308;-51
2023/10/18 10:40:48;;;;;;;2.30;2.00;;;16.90;66.20;17.60;99861.00;;;;5073123;28;20290;-51
2023/10/18 10:43:14;;;;;;;2.10;1.90;;;16.90;66.20;17.60;99860.00;;;;5048919;28;20560;-50
2023/10/18 10:48:15;;;;;;;2.57;2.07;;;16.90;66.20;17.60;99843.00;;;;5070282;28;20268;-49
2023/10/18 10:50:53;;;;;;;2.97;2.00;;;16.90;66.10;17.60;99830.00;;;;5069294;28;20228;-51
2023/10/18 10:53:50;;;;;;;2.87;2.00;;;16.90;66.50;17.70;99837.00;;;;5069886;28;20759;-51
2023/10/18 10:56:28;;;;;;;2.40;2.20;;;16.90;66.20;17.70;99835.00;;;;5070048;28;20606;-50
2023/10/18 11:01:39;;;;;;;3.27;1.93;;;16.90;66.10;17.70;99807.00;;;;5067942;28;20216;-51
2023/10/18 11:05:15;;;;;;;2.53;2.07;;;16.90;66.10;17.70;99789.00;;;;5069798;28;20279;-51
2023/10/18 11:07:26;;;;;;;2.70;2.30;;;16.90;66.10;17.70;99786.00;;;;5067995;28;20572;-51
2023/10/18 11:09:59;;;;;;;2.60;2.03;;;16.90;66.10;17.70;99779.00;;;;5069208;28;20223;-51
2023/10/18 11:12:26;;;;;;;2.97;2.10;;;16.90;66.10;17.70;99775.00;;;;5078023;28;20201;-51
2023/10/18 11:14:53;;;;;;;2.83;2.03;;;16.90;66.10;17.70;99777.00;;;;5073011;28;20178;-51
2023/10/18 11:17:19;;;;;;;2.00;1.80;;;16.90;66.10;17.70;99774.00;;;;5071530;28;20181;-51
2023/10/18 11:19:55;;;;;;;3.87;2.10;;;16.90;66.10;17.70;99758.00;;;;5069502;28;20191;-51
2023/10/18 11:22:22;;;;;;;2.10;1.90;;;17.00;66.20;17.80;99758.00;;;;5070757;28;20206;-51
2023/10/18 11:24:52;;;;;;;3.07;2.30;;;17.00;66.20;17.80;99754.00;;;;5061571;28;20233;-51
2023/10/18 11:27:22;;;;;;;2.00;1.90;;;17.00;66.20;17.80;99752.00;;;;5058187;28;20176;-51
2023/10/18 11:29:52;;;;;;;2.60;2.13;;;17.00;66.20;17.80;99739.00;;;;5059433;28;20568;-48
2023/10/18 11:32:20;;;;;;;2.37;1.97;;;17.00;66.30;17.80;99743.00;;;;5064349;28;20204;-49
2023/10/18 11:34:46;;;;;;;2.20;2.00;;;17.00;67.20;17.80;99740.00;;;;5068298;28;20229;-49
2023/10/18 11:37:34;;;;;;;2.10;1.90;;;17.00;67.60;17.80;99730.00;;;;5070208;28;20192;-49
2023/10/18 11:40:14;;;;;;;2.20;2.00;;;17.10;68.00;17.80;99730.00;;;;5061961;28;20302;-48
2023/10/18 11:43:08;;;;;;;2.47;2.27;;;17.10;67.90;17.90;99734.00;;;;5070951;28;20196;-50
2023/10/18 11:45:36;;;;;;;2.47;2.27;;;17.10;67.80;17.90;99726.00;;;;5070403;28;20206;-49
2023/10/18 11:48:05;;;;;;;3.57;2.10;;;17.10;67.70;17.90;99729.00;;;;5069739;28;20571;-48
2023/10/18 11:50:48;;;;;;;3.03;2.20;;;17.20;67.60;17.90;99713.00;;;;5069228;28;20219;-49